sensor_id;sensor_type;location;lat;lon;timestamp;P1;durP1;ratioP1;P2;durP2;ratioP2
19883;SDS011;10104;50.732;10.174;2023-02-20T00:01:48;10.07;;;6.43;;
19883;SDS011;10104;50.732;10.174;2023-02-20T00:04:11;9.03;;;6.50;;
19883;SDS011;10104;50.732;10.174;2023-02-20T00:06:32;7.63;;;5.80;;
19883;SDS011;10104;50.732;10.174;2023-02-20T00:08:54;6.93;;;5.17;;
19883;SDS011;10104;50.732;10.174;2023-02-20T00:11:15;6.97;;;5.07;;
19883;SDS011;10104;50.732;10.174;2023-02-20T00:13:42;7.20;;;5.23;;
19883;SDS011;10104;50.732;10.174;2023-02-20T00:16:05;8.40;;;5.50;;
19883;SDS011;10104;50.732;10.174;2023-02-20T00:18:27;8.83;;;4.77;;
19883;SDS011;10104;50.732;10.174;2023-02-20T00:20:49;8.27;;;4.93;;
19883;SDS011;10104;50.732;10.174;2023-02-20T00:23:10;8.23;;;5.13;;
19883;SDS011;10104;50.732;10.174;2023-02-20T00:25:32;6.63;;;4.90;;
19883;SDS011;10104;50.732;10.174;2023-02-20T00:27:53;6.03;;;4.30;;
19883;SDS011;10104;50.732;10.174;2023-02-20T00:30:16;5.77;;;4.63;;
19883;SDS011;10104;50.732;10.174;2023-02-20T00:32:43;7.07;;;4.80;;
19883;SDS011;10104;50.732;10.174;2023-02-20T00:35:04;6.47;;;4.83;;
19883;SDS011;10104;50.732;10.174;2023-02-20T00:37:26;6.47;;;4.73;;
19883;SDS011;10104;50.732;10.174;2023-02-20T00:39:47;6.33;;;5.00;;
19883;SDS011;10104;50.732;10.174;2023-02-20T00:42:09;7.40;;;5.40;;
19883;SDS011;10104;50.732;10.174;2023-02-20T00:44:30;6.80;;;5.27;;
19883;SDS011;10104;50.732;10.174;2023-02-20T00:46:52;8.97;;;5.70;;
19883;SDS011;10104;50.732;10.174;2023-02-20T00:49:13;8.77;;;5.90;;
19883;SDS011;10104;50.732;10.174;2023-02-20T00:51:35;8.53;;;6.07;;
19883;SDS011;10104;50.732;10.174;2023-02-20T00:53:56;7.67;;;5.93;;
19883;SDS011;10104;50.732;10.174;2023-02-20T00:56:18;8.77;;;6.27;;
19883;SDS011;10104;50.732;10.174;2023-02-20T00:58:40;9.50;;;5.80;;
19883;SDS011;10104;50.732;10.174;2023-02-20T01:01:01;8.03;;;6.27;;
19883;SDS011;10104;50.732;10.174;2023-02-20T01:03:23;8.67;;;6.53;;
19883;SDS011;10104;50.732;10.174;2023-02-20T01:05:44;8.57;;;6.23;;
19883;SDS011;10104;50.732;10.174;2023-02-20T01:08:06;10.20;;;6.87;;
19883;SDS011;10104;50.732;10.174;2023-02-20T01:10:27;10.67;;;6.60;;
19883;SDS011;10104;50.732;10.174;2023-02-20T01:12:49;8.63;;;6.60;;
19883;SDS011;10104;50.732;10.174;2023-02-20T01:15:10;9.70;;;6.80;;
19883;SDS011;10104;50.732;10.174;2023-02-20T01:17:34;8.93;;;6.63;;
19883;SDS011;10104;50.732;10.174;2023-02-20T01:19:56;10.63;;;6.90;;
19883;SDS011;10104;50.732;10.174;2023-02-20T01:22:17;9.50;;;6.50;;
19883;SDS011;10104;50.732;10.174;2023-02-20T01:24:38;8.47;;;6.60;;
19883;SDS011;10104;50.732;10.174;2023-02-20T01:27:00;7.17;;;5.80;;
19883;SDS011;10104;50.732;10.174;2023-02-20T01:29:22;11.07;;;6.83;;
19883;SDS011;10104;50.732;10.174;2023-02-20T01:31:47;7.73;;;6.00;;
19883;SDS011;10104;50.732;10.174;2023-02-20T01:34:12;7.07;;;5.77;;
19883;SDS011;10104;50.732;10.174;2023-02-20T01:36:34;9.87;;;7.00;;
19883;SDS011;10104;50.732;10.174;2023-02-20T01:38:55;9.33;;;5.70;;
19883;SDS011;10104;50.732;10.174;2023-02-20T01:41:17;7.33;;;5.63;;
19883;SDS011;10104;50.732;10.174;2023-02-20T01:43:40;7.17;;;5.70;;
19883;SDS011;10104;50.732;10.174;2023-02-20T01:49:12;7.27;;;5.60;;
19883;SDS011;10104;50.732;10.174;2023-02-20T01:51:40;7.87;;;6.00;;
19883;SDS011;10104;50.732;10.174;2023-02-20T01:54:05;6.90;;;5.63;;
19883;SDS011;10104;50.732;10.174;2023-02-20T01:56:29;6.97;;;5.60;;
19883;SDS011;10104;50.732;10.174;2023-02-20T01:58:51;6.97;;;5.57;;
19883;SDS011;10104;50.732;10.174;2023-02-20T02:01:12;7.60;;;6.23;;
19883;SDS011;10104;50.732;10.174;2023-02-20T02:03:34;6.60;;;5.20;;
19883;SDS011;10104;50.732;10.174;2023-02-20T02:06:02;6.83;;;5.90;;
19883;SDS011;10104;50.732;10.174;2023-02-20T02:11:35;8.77;;;6.93;;
19883;SDS011;10104;50.732;10.174;2023-02-20T02:13:57;10.93;;;7.67;;
19883;SDS011;10104;50.732;10.174;2023-02-20T02:26:57;11.00;;;7.83;;
19883;SDS011;10104;50.732;10.174;2023-02-20T02:35:12;11.13;;;8.40;;
19883;SDS011;10104;50.732;10.174;2023-02-20T02:40:22;9.87;;;8.77;;
19883;SDS011;10104;50.732;10.174;2023-02-20T02:47:49;13.30;;;8.70;;
19883;SDS011;10104;50.732;10.174;2023-02-20T02:50:26;12.13;;;8.57;;
19883;SDS011;10104;50.732;10.174;2023-02-20T02:52:52;11.77;;;8.87;;
19883;SDS011;10104;50.732;10.174;2023-02-20T02:55:17;13.77;;;10.13;;
19883;SDS011;10104;50.732;10.174;2023-02-20T02:57:41;12.37;;;9.83;;
19883;SDS011;10104;50.732;10.174;2023-02-20T03:00:08;12.93;;;10.50;;
19883;SDS011;10104;50.732;10.174;2023-02-20T03:02:32;14.63;;;11.13;;
19883;SDS011;10104;50.732;10.174;2023-02-20T03:05:00;16.20;;;11.90;;
19883;SDS011;10104;50.732;10.174;2023-02-20T03:07:25;14.43;;;11.30;;
19883;SDS011;10104;50.732;10.174;2023-02-20T03:12:14;15.87;;;11.37;;
19883;SDS011;10104;50.732;10.174;2023-02-20T03:14:40;15.07;;;11.20;;
19883;SDS011;10104;50.732;10.174;2023-02-20T03:17:29;16.90;;;12.93;;
19883;SDS011;10104;50.732;10.174;2023-02-20T03:19:53;17.70;;;13.67;;
19883;SDS011;10104;50.732;10.174;2023-02-20T03:24:47;18.30;;;13.80;;
19883;SDS011;10104;50.732;10.174;2023-02-20T03:27:17;16.53;;;12.23;;
19883;SDS011;10104;50.732;10.174;2023-02-20T03:29:38;14.97;;;12.27;;
19883;SDS011;10104;50.732;10.174;2023-02-20T03:32:01;17.37;;;13.37;;
19883;SDS011;10104;50.732;10.174;2023-02-20T03:34:45;18.97;;;13.63;;
19883;SDS011;10104;50.732;10.174;2023-02-20T03:37:29;20.70;;;13.70;;
19883;SDS011;10104;50.732;10.174;2023-02-20T03:40:13;19.73;;;14.03;;
19883;SDS011;10104;50.732;10.174;2023-02-20T03:42:56;20.57;;;15.53;;
19883;SDS011;10104;50.732;10.174;2023-02-20T03:45:40;18.47;;;14.57;;
19883;SDS011;10104;50.732;10.174;2023-02-20T03:48:06;22.83;;;15.10;;
19883;SDS011;10104;50.732;10.174;2023-02-20T03:50:32;18.97;;;13.40;;
19883;SDS011;10104;50.732;10.174;2023-02-20T03:53:12;20.77;;;14.90;;
19883;SDS011;10104;50.732;10.174;2023-02-20T03:55:35;19.60;;;15.60;;
19883;SDS011;10104;50.732;10.174;2023-02-20T03:57:57;19.30;;;15.33;;
19883;SDS011;10104;50.732;10.174;2023-02-20T04:00:32;21.00;;;14.00;;
19883;SDS011;10104;50.732;10.174;2023-02-20T04:03:01;21.57;;;15.03;;
19883;SDS011;10104;50.732;10.174;2023-02-20T04:05:34;19.13;;;14.03;;
19883;SDS011;10104;50.732;10.174;2023-02-20T04:08:03;20.43;;;13.10;;
19883;SDS011;10104;50.732;10.174;2023-02-20T04:10:30;17.37;;;12.50;;
19883;SDS011;10104;50.732;10.174;2023-02-20T04:12:56;18.63;;;13.93;;
19883;SDS011;10104;50.732;10.174;2023-02-20T04:15:18;17.17;;;13.40;;
19883;SDS011;10104;50.732;10.174;2023-02-20T04:17:43;18.83;;;14.67;;
19883;SDS011;10104;50.732;10.174;2023-02-20T04:20:08;19.90;;;12.70;;
19883;SDS011;10104;50.732;10.174;2023-02-20T04:22:31;17.87;;;13.27;;
19883;SDS011;10104;50.732;10.174;2023-02-20T04:24:59;18.43;;;13.33;;
19883;SDS011;10104;50.732;10.174;2023-02-20T04:27:24;16.80;;;11.97;;
19883;SDS011;10104;50.732;10.174;2023-02-20T04:29:46;14.90;;;11.00;;
19883;SDS011;10104;50.732;10.174;2023-02-20T04:32:07;15.70;;;10.63;;
19883;SDS011;10104;50.732;10.174;2023-02-20T04:34:29;15.70;;;11.53;;
19883;SDS011;10104;50.732;10.174;2023-02-20T04:37:06;16.40;;;11.00;;
19883;SDS011;10104;50.732;10.174;2023-02-20T04:39:30;13.43;;;9.73;;
19883;SDS011;10104;50.732;10.174;2023-02-20T04:41:51;14.47;;;10.37;;
19883;SDS011;10104;50.732;10.174;2023-02-20T04:44:12;14.80;;;10.83;;
19883;SDS011;10104;50.732;10.174;2023-02-20T04:46:52;16.43;;;10.23;;
19883;SDS011;10104;50.732;10.174;2023-02-20T04:49:14;15.23;;;10.00;;
19883;SDS011;10104;50.732;10.174;2023-02-20T04:51:35;14.37;;;10.20;;
19883;SDS011;10104;50.732;10.174;2023-02-20T04:53:57;14.03;;;8.97;;
19883;SDS011;10104;50.732;10.174;2023-02-20T04:56:18;16.23;;;9.73;;
19883;SDS011;10104;50.732;10.174;2023-02-20T04:58:40;12.60;;;9.43;;
19883;SDS011;10104;50.732;10.174;2023-02-20T05:01:07;12.50;;;8.57;;
19883;SDS011;10104;50.732;10.174;2023-02-20T05:03:28;13.47;;;9.73;;
19883;SDS011;10104;50.732;10.174;2023-02-20T05:05:50;12.50;;;9.10;;
19883;SDS011;10104;50.732;10.174;2023-02-20T05:08:11;11.97;;;9.37;;
19883;SDS011;10104;50.732;10.174;2023-02-20T05:10:33;13.57;;;9.17;;
19883;SDS011;10104;50.732;10.174;2023-02-20T05:12:56;11.60;;;9.23;;
19883;SDS011;10104;50.732;10.174;2023-02-20T05:15:18;14.23;;;8.57;;
19883;SDS011;10104;50.732;10.174;2023-02-20T05:17:40;12.77;;;9.17;;
19883;SDS011;10104;50.732;10.174;2023-02-20T05:20:03;11.57;;;8.60;;
19883;SDS011;10104;50.732;10.174;2023-02-20T05:22:25;10.60;;;7.93;;
19883;SDS011;10104;50.732;10.174;2023-02-20T05:24:48;13.70;;;8.10;;
19883;SDS011;10104;50.732;10.174;2023-02-20T05:27:12;11.43;;;7.73;;
19883;SDS011;10104;50.732;10.174;2023-02-20T05:29:35;12.33;;;7.70;;
19883;SDS011;10104;50.732;10.174;2023-02-20T05:31:56;9.83;;;7.37;;
19883;SDS011;10104;50.732;10.174;2023-02-20T05:34:18;10.43;;;7.97;;
19883;SDS011;10104;50.732;10.174;2023-02-20T05:36:41;9.50;;;7.23;;
19883;SDS011;10104;50.732;10.174;2023-02-20T05:39:03;12.00;;;7.93;;
19883;SDS011;10104;50.732;10.174;2023-02-20T05:41:25;11.23;;;7.80;;
19883;SDS011;10104;50.732;10.174;2023-02-20T05:43:46;11.73;;;7.07;;
19883;SDS011;10104;50.732;10.174;2023-02-20T05:46:08;12.70;;;7.40;;
19883;SDS011;10104;50.732;10.174;2023-02-20T05:48:30;10.00;;;7.50;;
19883;SDS011;10104;50.732;10.174;2023-02-20T05:50:52;11.63;;;7.70;;
19883;SDS011;10104;50.732;10.174;2023-02-20T05:53:15;10.07;;;7.93;;
19883;SDS011;10104;50.732;10.174;2023-02-20T05:55:36;10.43;;;7.37;;
19883;SDS011;10104;50.732;10.174;2023-02-20T05:57:58;11.93;;;7.83;;
19883;SDS011;10104;50.732;10.174;2023-02-20T06:00:19;11.77;;;7.63;;
19883;SDS011;10104;50.732;10.174;2023-02-20T06:02:41;9.63;;;7.33;;
19883;SDS011;10104;50.732;10.174;2023-02-20T06:05:02;11.33;;;8.00;;
19883;SDS011;10104;50.732;10.174;2023-02-20T06:07:25;11.03;;;7.83;;
19883;SDS011;10104;50.732;10.174;2023-02-20T06:09:47;10.63;;;7.60;;
19883;SDS011;10104;50.732;10.174;2023-02-20T06:12:10;11.43;;;8.13;;
19883;SDS011;10104;50.732;10.174;2023-02-20T06:14:31;10.60;;;7.80;;
19883;SDS011;10104;50.732;10.174;2023-02-20T06:16:53;9.63;;;7.63;;
19883;SDS011;10104;50.732;10.174;2023-02-20T06:19:20;13.30;;;8.37;;
19883;SDS011;10104;50.732;10.174;2023-02-20T06:21:44;13.53;;;7.70;;
19883;SDS011;10104;50.732;10.174;2023-02-20T06:24:06;11.27;;;7.90;;
19883;SDS011;10104;50.732;10.174;2023-02-20T06:26:27;10.40;;;7.80;;
19883;SDS011;10104;50.732;10.174;2023-02-20T06:28:49;14.47;;;8.27;;
19883;SDS011;10104;50.732;10.174;2023-02-20T06:31:11;12.37;;;7.97;;
19883;SDS011;10104;50.732;10.174;2023-02-20T06:33:32;14.07;;;8.70;;
19883;SDS011;10104;50.732;10.174;2023-02-20T06:35:54;11.97;;;7.77;;
19883;SDS011;10104;50.732;10.174;2023-02-20T06:38:16;13.17;;;8.23;;
19883;SDS011;10104;50.732;10.174;2023-02-20T06:40:37;11.03;;;7.77;;
19883;SDS011;10104;50.732;10.174;2023-02-20T06:43:00;13.67;;;8.10;;
19883;SDS011;10104;50.732;10.174;2023-02-20T06:45:21;11.93;;;8.07;;
19883;SDS011;10104;50.732;10.174;2023-02-20T06:47:43;10.97;;;7.97;;
19883;SDS011;10104;50.732;10.174;2023-02-20T06:50:04;13.50;;;8.50;;
19883;SDS011;10104;50.732;10.174;2023-02-20T06:52:26;11.87;;;8.47;;
19883;SDS011;10104;50.732;10.174;2023-02-20T06:54:47;11.30;;;8.10;;
19883;SDS011;10104;50.732;10.174;2023-02-20T06:57:09;16.80;;;9.43;;
19883;SDS011;10104;50.732;10.174;2023-02-20T06:59:30;16.90;;;9.00;;
19883;SDS011;10104;50.732;10.174;2023-02-20T07:01:52;15.37;;;9.30;;
19883;SDS011;10104;50.732;10.174;2023-02-20T07:04:15;12.80;;;9.13;;
19883;SDS011;10104;50.732;10.174;2023-02-20T07:06:38;12.40;;;8.80;;
19883;SDS011;10104;50.732;10.174;2023-02-20T07:09:00;12.07;;;8.33;;
19883;SDS011;10104;50.732;10.174;2023-02-20T07:11:22;14.53;;;8.87;;
19883;SDS011;10104;50.732;10.174;2023-02-20T07:13:44;13.03;;;8.90;;
19883;SDS011;10104;50.732;10.174;2023-02-20T07:16:06;12.30;;;7.77;;
19883;SDS011;10104;50.732;10.174;2023-02-20T07:18:27;11.63;;;8.33;;
19883;SDS011;10104;50.732;10.174;2023-02-20T07:20:52;11.97;;;7.90;;
19883;SDS011;10104;50.732;10.174;2023-02-20T07:23:15;10.73;;;8.00;;
19883;SDS011;10104;50.732;10.174;2023-02-20T07:25:37;11.60;;;8.20;;
19883;SDS011;10104;50.732;10.174;2023-02-20T07:27:58;12.83;;;7.77;;
19883;SDS011;10104;50.732;10.174;2023-02-20T07:30:20;14.67;;;7.47;;
19883;SDS011;10104;50.732;10.174;2023-02-20T07:32:45;9.93;;;7.60;;
19883;SDS011;10104;50.732;10.174;2023-02-20T07:35:06;12.60;;;7.03;;
19883;SDS011;10104;50.732;10.174;2023-02-20T07:37:29;11.07;;;7.13;;
19883;SDS011;10104;50.732;10.174;2023-02-20T07:39:51;10.53;;;7.47;;
19883;SDS011;10104;50.732;10.174;2023-02-20T07:42:12;9.80;;;7.13;;
19883;SDS011;10104;50.732;10.174;2023-02-20T07:44:34;16.40;;;8.10;;
19883;SDS011;10104;50.732;10.174;2023-02-20T07:46:56;10.03;;;7.27;;
19883;SDS011;10104;50.732;10.174;2023-02-20T07:49:17;10.60;;;7.00;;
19883;SDS011;10104;50.732;10.174;2023-02-20T07:51:39;12.77;;;6.20;;
19883;SDS011;10104;50.732;10.174;2023-02-20T07:54:00;10.60;;;6.43;;
19883;SDS011;10104;50.732;10.174;2023-02-20T07:56:23;9.20;;;5.93;;
19883;SDS011;10104;50.732;10.174;2023-02-20T07:58:45;9.70;;;6.63;;
19883;SDS011;10104;50.732;10.174;2023-02-20T08:01:06;9.90;;;6.37;;
19883;SDS011;10104;50.732;10.174;2023-02-20T08:03:28;9.93;;;6.50;;
19883;SDS011;10104;50.732;10.174;2023-02-20T08:05:49;9.87;;;6.40;;
19883;SDS011;10104;50.732;10.174;2023-02-20T08:08:11;8.93;;;6.20;;
19883;SDS011;10104;50.732;10.174;2023-02-20T08:10:32;12.10;;;6.00;;
19883;SDS011;10104;50.732;10.174;2023-02-20T08:12:54;7.77;;;5.53;;
19883;SDS011;10104;50.732;10.174;2023-02-20T08:15:17;7.67;;;5.63;;
19883;SDS011;10104;50.732;10.174;2023-02-20T08:17:39;9.80;;;5.13;;
19883;SDS011;10104;50.732;10.174;2023-02-20T08:20:07;7.17;;;4.80;;
19883;SDS011;10104;50.732;10.174;2023-02-20T08:22:29;8.60;;;5.30;;
19883;SDS011;10104;50.732;10.174;2023-02-20T08:25:01;8.03;;;4.67;;
19883;SDS011;10104;50.732;10.174;2023-02-20T08:27:24;8.53;;;4.47;;
19883;SDS011;10104;50.732;10.174;2023-02-20T08:29:47;10.37;;;4.67;;
19883;SDS011;10104;50.732;10.174;2023-02-20T08:32:09;8.40;;;4.93;;
19883;SDS011;10104;50.732;10.174;2023-02-20T08:34:30;6.00;;;4.40;;
19883;SDS011;10104;50.732;10.174;2023-02-20T08:36:52;6.77;;;4.30;;
19883;SDS011;10104;50.732;10.174;2023-02-20T08:39:13;7.57;;;4.63;;
19883;SDS011;10104;50.732;10.174;2023-02-20T08:41:40;7.53;;;4.90;;
19883;SDS011;10104;50.732;10.174;2023-02-20T08:44:02;5.43;;;3.83;;
19883;SDS011;10104;50.732;10.174;2023-02-20T08:46:24;8.00;;;4.23;;
19883;SDS011;10104;50.732;10.174;2023-02-20T08:48:46;5.63;;;3.83;;
19883;SDS011;10104;50.732;10.174;2023-02-20T08:51:07;6.00;;;4.03;;
19883;SDS011;10104;50.732;10.174;2023-02-20T08:53:29;6.67;;;4.40;;
19883;SDS011;10104;50.732;10.174;2023-02-20T08:55:51;6.40;;;3.90;;
19883;SDS011;10104;50.732;10.174;2023-02-20T08:58:12;7.07;;;3.83;;
19883;SDS011;10104;50.732;10.174;2023-02-20T09:00:34;8.73;;;3.83;;
19883;SDS011;10104;50.732;10.174;2023-02-20T09:02:56;6.27;;;3.87;;
19883;SDS011;10104;50.732;10.174;2023-02-20T09:05:17;5.53;;;3.10;;
19883;SDS011;10104;50.732;10.174;2023-02-20T09:07:39;6.13;;;3.20;;
19883;SDS011;10104;50.732;10.174;2023-02-20T09:10:00;5.63;;;3.50;;
19883;SDS011;10104;50.732;10.174;2023-02-20T09:12:22;8.83;;;3.50;;
19883;SDS011;10104;50.732;10.174;2023-02-20T09:14:44;6.17;;;3.33;;
19883;SDS011;10104;50.732;10.174;2023-02-20T09:17:06;3.57;;;2.50;;
19883;SDS011;10104;50.732;10.174;2023-02-20T09:19:27;7.27;;;3.27;;
19883;SDS011;10104;50.732;10.174;2023-02-20T09:21:49;4.33;;;3.13;;
19883;SDS011;10104;50.732;10.174;2023-02-20T09:24:10;7.23;;;3.07;;
19883;SDS011;10104;50.732;10.174;2023-02-20T09:26:32;5.77;;;2.97;;
19883;SDS011;10104;50.732;10.174;2023-02-20T09:28:53;8.10;;;3.43;;
19883;SDS011;10104;50.732;10.174;2023-02-20T09:31:15;4.60;;;3.10;;
19883;SDS011;10104;50.732;10.174;2023-02-20T09:33:36;6.97;;;3.33;;
19883;SDS011;10104;50.732;10.174;2023-02-20T09:35:58;8.37;;;3.83;;
19883;SDS011;10104;50.732;10.174;2023-02-20T09:38:20;7.87;;;3.90;;
19883;SDS011;10104;50.732;10.174;2023-02-20T09:40:43;7.30;;;3.07;;
19883;SDS011;10104;50.732;10.174;2023-02-20T09:45:36;8.93;;;3.57;;
19883;SDS011;10104;50.732;10.174;2023-02-20T09:50:52;5.30;;;2.90;;
19883;SDS011;10104;50.732;10.174;2023-02-20T09:56:01;5.23;;;2.87;;
19883;SDS011;10104;50.732;10.174;2023-02-20T09:58:29;5.77;;;3.27;;
19883;SDS011;10104;50.732;10.174;2023-02-20T10:00:57;5.10;;;2.97;;
19883;SDS011;10104;50.732;10.174;2023-02-20T10:03:28;4.50;;;2.57;;
19883;SDS011;10104;50.732;10.174;2023-02-20T10:06:00;8.20;;;2.60;;
19883;SDS011;10104;50.732;10.174;2023-02-20T10:08:34;6.37;;;2.73;;
19883;SDS011;10104;50.732;10.174;2023-02-20T10:10:56;4.50;;;2.30;;
19883;SDS011;10104;50.732;10.174;2023-02-20T10:13:33;3.50;;;2.00;;
19883;SDS011;10104;50.732;10.174;2023-02-20T10:16:21;4.77;;;1.70;;
19883;SDS011;10104;50.732;10.174;2023-02-20T10:27:00;4.33;;;2.00;;
19883;SDS011;10104;50.732;10.174;2023-02-20T10:29:35;2.57;;;1.60;;
19883;SDS011;10104;50.732;10.174;2023-02-20T10:32:09;3.57;;;1.87;;
19883;SDS011;10104;50.732;10.174;2023-02-20T10:34:42;5.80;;;1.90;;
19883;SDS011;10104;50.732;10.174;2023-02-20T10:39:37;4.77;;;2.17;;
19883;SDS011;10104;50.732;10.174;2023-02-20T10:42:09;3.43;;;2.20;;
19883;SDS011;10104;50.732;10.174;2023-02-20T10:44:55;4.00;;;2.07;;
19883;SDS011;10104;50.732;10.174;2023-02-20T10:47:23;3.37;;;2.30;;
19883;SDS011;10104;50.732;10.174;2023-02-20T10:52:53;5.87;;;2.70;;
19883;SDS011;10104;50.732;10.174;2023-02-20T10:58:05;2.87;;;2.23;;
19883;SDS011;10104;50.732;10.174;2023-02-20T11:00:39;5.37;;;3.10;;
19883;SDS011;10104;50.732;10.174;2023-02-20T11:03:07;4.97;;;3.70;;
19883;SDS011;10104;50.732;10.174;2023-02-20T11:05:37;5.40;;;3.17;;
19883;SDS011;10104;50.732;10.174;2023-02-20T11:08:03;7.80;;;3.80;;
19883;SDS011;10104;50.732;10.174;2023-02-20T11:10:24;6.07;;;3.33;;
19883;SDS011;10104;50.732;10.174;2023-02-20T11:12:55;6.47;;;3.70;;
19883;SDS011;10104;50.732;10.174;2023-02-20T11:15:21;8.43;;;2.90;;
19883;SDS011;10104;50.732;10.174;2023-02-20T11:17:47;7.53;;;3.83;;
19883;SDS011;10104;50.732;10.174;2023-02-20T11:23:06;5.10;;;3.10;;
19883;SDS011;10104;50.732;10.174;2023-02-20T11:25:36;9.93;;;3.43;;
19883;SDS011;10104;50.732;10.174;2023-02-20T11:28:06;6.03;;;3.10;;
19883;SDS011;10104;50.732;10.174;2023-02-20T11:30:41;8.17;;;3.90;;
19883;SDS011;10104;50.732;10.174;2023-02-20T11:33:10;6.13;;;3.27;;
19883;SDS011;10104;50.732;10.174;2023-02-20T11:35:38;7.70;;;3.20;;
19883;SDS011;10104;50.732;10.174;2023-02-20T11:40:38;5.67;;;3.17;;
19883;SDS011;10104;50.732;10.174;2023-02-20T11:43:10;9.00;;;3.77;;
19883;SDS011;10104;50.732;10.174;2023-02-20T11:45:41;7.20;;;3.07;;
19883;SDS011;10104;50.732;10.174;2023-02-20T11:48:09;5.33;;;3.60;;
19883;SDS011;10104;50.732;10.174;2023-02-20T11:50:42;8.50;;;3.97;;
19883;SDS011;10104;50.732;10.174;2023-02-20T11:53:06;6.03;;;3.80;;
19883;SDS011;10104;50.732;10.174;2023-02-20T11:55:39;7.43;;;3.70;;
19883;SDS011;10104;50.732;10.174;2023-02-20T11:58:04;6.53;;;3.90;;
19883;SDS011;10104;50.732;10.174;2023-02-20T12:00:44;8.20;;;4.07;;
19883;SDS011;10104;50.732;10.174;2023-02-20T12:05:36;7.70;;;4.10;;
19883;SDS011;10104;50.732;10.174;2023-02-20T12:10:55;6.83;;;4.23;;
19883;SDS011;10104;50.732;10.174;2023-02-20T12:13:21;6.77;;;3.07;;
19883;SDS011;10104;50.732;10.174;2023-02-20T12:15:45;7.40;;;3.83;;
19883;SDS011;10104;50.732;10.174;2023-02-20T12:18:34;5.17;;;3.47;;
19883;SDS011;10104;50.732;10.174;2023-02-20T12:32:07;7.23;;;4.10;;
19883;SDS011;10104;50.732;10.174;2023-02-20T12:37:58;8.67;;;4.30;;
19883;SDS011;10104;50.732;10.174;2023-02-20T12:40:41;8.87;;;4.80;;
19883;SDS011;10104;50.732;10.174;2023-02-20T12:43:27;6.87;;;4.10;;
19883;SDS011;10104;50.732;10.174;2023-02-20T12:51:17;9.20;;;4.77;;
19883;SDS011;10104;50.732;10.174;2023-02-20T12:54:06;7.23;;;4.03;;
19883;SDS011;10104;50.732;10.174;2023-02-20T13:00:00;9.80;;;4.50;;
19883;SDS011;10104;50.732;10.174;2023-02-20T13:02:37;8.90;;;4.47;;
19883;SDS011;10104;50.732;10.174;2023-02-20T13:05:04;7.10;;;4.07;;
19883;SDS011;10104;50.732;10.174;2023-02-20T13:10:07;6.63;;;4.40;;
19883;SDS011;10104;50.732;10.174;2023-02-20T13:12:31;8.63;;;4.80;;
19883;SDS011;10104;50.732;10.174;2023-02-20T13:20:28;6.57;;;4.20;;
19883;SDS011;10104;50.732;10.174;2023-02-20T13:25:37;8.03;;;5.20;;
19883;SDS011;10104;50.732;10.174;2023-02-20T13:28:20;7.97;;;5.57;;
19883;SDS011;10104;50.732;10.174;2023-02-20T13:33:29;10.80;;;5.77;;
19883;SDS011;10104;50.732;10.174;2023-02-20T13:35:54;10.87;;;5.60;;
19883;SDS011;10104;50.732;10.174;2023-02-20T13:38:18;8.47;;;4.77;;
19883;SDS011;10104;50.732;10.174;2023-02-20T13:40:42;11.07;;;5.37;;
19883;SDS011;10104;50.732;10.174;2023-02-20T13:45:42;11.40;;;5.70;;
19883;SDS011;10104;50.732;10.174;2023-02-20T13:50:49;11.43;;;5.37;;
19883;SDS011;10104;50.732;10.174;2023-02-20T13:53:10;8.07;;;4.83;;
19883;SDS011;10104;50.732;10.174;2023-02-20T13:55:32;7.30;;;5.10;;
19883;SDS011;10104;50.732;10.174;2023-02-20T13:58:12;9.80;;;5.60;;
19883;SDS011;10104;50.732;10.174;2023-02-20T14:00:52;10.13;;;5.53;;
19883;SDS011;10104;50.732;10.174;2023-02-20T14:03:19;9.90;;;5.27;;
19883;SDS011;10104;50.732;10.174;2023-02-20T14:05:46;10.17;;;6.10;;
19883;SDS011;10104;50.732;10.174;2023-02-20T14:08:23;10.87;;;5.87;;
19883;SDS011;10104;50.732;10.174;2023-02-20T14:10:45;8.47;;;5.60;;
19883;SDS011;10104;50.732;10.174;2023-02-20T14:13:19;10.03;;;5.33;;
19883;SDS011;10104;50.732;10.174;2023-02-20T14:15:58;8.00;;;5.57;;
19883;SDS011;10104;50.732;10.174;2023-02-20T14:18:27;13.10;;;5.70;;
19883;SDS011;10104;50.732;10.174;2023-02-20T14:21:14;11.00;;;5.47;;
19883;SDS011;10104;50.732;10.174;2023-02-20T14:23:39;8.90;;;5.50;;
19883;SDS011;10104;50.732;10.174;2023-02-20T14:26:03;11.73;;;5.57;;
19883;SDS011;10104;50.732;10.174;2023-02-20T14:28:27;9.70;;;5.70;;
19883;SDS011;10104;50.732;10.174;2023-02-20T14:34:07;9.77;;;5.67;;
19883;SDS011;10104;50.732;10.174;2023-02-20T14:36:35;12.57;;;5.73;;
19883;SDS011;10104;50.732;10.174;2023-02-20T14:41:50;9.70;;;5.20;;
19883;SDS011;10104;50.732;10.174;2023-02-20T14:44:17;8.40;;;5.80;;
19883;SDS011;10104;50.732;10.174;2023-02-20T14:46:39;7.93;;;5.33;;
19883;SDS011;10104;50.732;10.174;2023-02-20T14:51:33;6.93;;;4.73;;
19883;SDS011;10104;50.732;10.174;2023-02-20T14:54:14;6.07;;;3.87;;
19883;SDS011;10104;50.732;10.174;2023-02-20T14:56:36;7.10;;;4.10;;
19883;SDS011;10104;50.732;10.174;2023-02-20T14:59:13;8.43;;;4.53;;
19883;SDS011;10104;50.732;10.174;2023-02-20T15:01:50;8.23;;;4.20;;
19883;SDS011;10104;50.732;10.174;2023-02-20T15:04:14;7.70;;;4.30;;
19883;SDS011;10104;50.732;10.174;2023-02-20T15:06:38;7.03;;;3.70;;
19883;SDS011;10104;50.732;10.174;2023-02-20T15:09:01;7.53;;;3.87;;
19883;SDS011;10104;50.732;10.174;2023-02-20T15:11:51;7.27;;;4.10;;
19883;SDS011;10104;50.732;10.174;2023-02-20T15:14:19;9.53;;;4.43;;
19883;SDS011;10104;50.732;10.174;2023-02-20T15:16:43;5.13;;;2.93;;
19883;SDS011;10104;50.732;10.174;2023-02-20T15:19:18;8.93;;;4.30;;
19883;SDS011;10104;50.732;10.174;2023-02-20T15:21:41;5.10;;;3.33;;
19883;SDS011;10104;50.732;10.174;2023-02-20T15:27:07;5.03;;;3.13;;
19883;SDS011;10104;50.732;10.174;2023-02-20T15:29:39;6.43;;;2.97;;
19883;SDS011;10104;50.732;10.174;2023-02-20T15:32:03;7.03;;;2.90;;
19883;SDS011;10104;50.732;10.174;2023-02-20T15:34:27;5.00;;;2.77;;
19883;SDS011;10104;50.732;10.174;2023-02-20T15:36:50;5.33;;;2.60;;
19883;SDS011;10104;50.732;10.174;2023-02-20T15:39:12;4.07;;;2.97;;
19883;SDS011;10104;50.732;10.174;2023-02-20T15:41:34;4.23;;;2.53;;
19883;SDS011;10104;50.732;10.174;2023-02-20T15:43:55;5.60;;;2.77;;
19883;SDS011;10104;50.732;10.174;2023-02-20T15:46:17;5.60;;;2.27;;
19883;SDS011;10104;50.732;10.174;2023-02-20T15:48:40;5.03;;;2.70;;
19883;SDS011;10104;50.732;10.174;2023-02-20T15:51:01;5.97;;;2.90;;
19883;SDS011;10104;50.732;10.174;2023-02-20T15:53:26;4.60;;;2.67;;
19883;SDS011;10104;50.732;10.174;2023-02-20T15:55:50;7.43;;;2.87;;
19883;SDS011;10104;50.732;10.174;2023-02-20T15:58:27;5.60;;;3.03;;
19883;SDS011;10104;50.732;10.174;2023-02-20T16:00:55;4.97;;;2.73;;
19883;SDS011;10104;50.732;10.174;2023-02-20T16:03:17;7.90;;;2.80;;
19883;SDS011;10104;50.732;10.174;2023-02-20T16:05:39;6.07;;;3.40;;
19883;SDS011;10104;50.732;10.174;2023-02-20T16:08:00;4.70;;;2.80;;
19883;SDS011;10104;50.732;10.174;2023-02-20T16:10:22;7.93;;;3.20;;
19883;SDS011;10104;50.732;10.174;2023-02-20T16:12:45;5.20;;;2.77;;
19883;SDS011;10104;50.732;10.174;2023-02-20T16:15:14;3.93;;;2.60;;
19883;SDS011;10104;50.732;10.174;2023-02-20T16:17:38;5.00;;;2.50;;
19883;SDS011;10104;50.732;10.174;2023-02-20T16:19:59;4.20;;;2.40;;
19883;SDS011;10104;50.732;10.174;2023-02-20T16:22:21;3.77;;;2.47;;